sensor_id;sensor_type;location;lat;lon;timestamp;temperature;humidity
1455;DHT22;721;48.168;12.818;2022-12-24T00:00:57;10.90;70.90
1455;DHT22;721;48.168;12.818;2022-12-24T00:03:24;10.80;72.00
1455;DHT22;721;48.168;12.818;2022-12-24T00:05:51;10.90;70.50
1455;DHT22;721;48.168;12.818;2022-12-24T00:08:18;10.80;71.10
1455;DHT22;721;48.168;12.818;2022-12-24T00:10:48;10.80;70.70
1455;DHT22;721;48.168;12.818;2022-12-24T00:13:15;10.90;68.70
1455;DHT22;721;48.168;12.818;2022-12-24T00:15:43;10.90;69.70
1455;DHT22;721;48.168;12.818;2022-12-24T00:18:10;10.90;68.40
1455;DHT22;721;48.168;12.818;2022-12-24T00:20:37;10.90;68.50
1455;DHT22;721;48.168;12.818;2022-12-24T00:23:04;10.90;69.00
1455;DHT22;721;48.168;12.818;2022-12-24T00:25:31;10.80;70.20
1455;DHT22;721;48.168;12.818;2022-12-24T00:27:58;10.80;72.50
1455;DHT22;721;48.168;12.818;2022-12-24T00:30:25;10.80;73.40
1455;DHT22;721;48.168;12.818;2022-12-24T00:32:53;10.70;73.50
1455;DHT22;721;48.168;12.818;2022-12-24T00:35:20;10.70;70.70
1455;DHT22;721;48.168;12.818;2022-12-24T00:37:47;10.70;71.40
1455;DHT22;721;48.168;12.818;2022-12-24T00:40:14;10.70;69.50
1455;DHT22;721;48.168;12.818;2022-12-24T00:42:40;10.60;68.00
1455;DHT22;721;48.168;12.818;2022-12-24T00:45:08;10.50;63.40
1455;DHT22;721;48.168;12.818;2022-12-24T00:47:36;10.40;63.80
1455;DHT22;721;48.168;12.818;2022-12-24T00:50:05;10.40;64.20
1455;DHT22;721;48.168;12.818;2022-12-24T00:52:32;10.50;63.90
1455;DHT22;721;48.168;12.818;2022-12-24T00:54:59;10.40;66.70
1455;DHT22;721;48.168;12.818;2022-12-24T00:57:25;10.50;70.00
1455;DHT22;721;48.168;12.818;2022-12-24T00:59:52;10.50;66.90
1455;DHT22;721;48.168;12.818;2022-12-24T01:02:19;10.60;65.80
1455;DHT22;721;48.168;12.818;2022-12-24T01:04:46;10.60;66.90
1455;DHT22;721;48.168;12.818;2022-12-24T01:07:32;10.60;63.90
1455;DHT22;721;48.168;12.818;2022-12-24T01:09:59;10.60;65.80
1455;DHT22;721;48.168;12.818;2022-12-24T01:12:25;10.60;63.90
1455;DHT22;721;48.168;12.818;2022-12-24T01:14:52;10.50;61.30
1455;DHT22;721;48.168;12.818;2022-12-24T01:17:19;10.50;61.90
1455;DHT22;721;48.168;12.818;2022-12-24T01:19:46;10.60;61.00
1455;DHT22;721;48.168;12.818;2022-12-24T01:22:12;10.50;60.90
1455;DHT22;721;48.168;12.818;2022-12-24T01:24:41;10.40;61.60
1455;DHT22;721;48.168;12.818;2022-12-24T01:27:08;10.40;59.50
1455;DHT22;721;48.168;12.818;2022-12-24T01:29:35;10.40;59.20
1455;DHT22;721;48.168;12.818;2022-12-24T01:32:02;10.30;56.10
1455;DHT22;721;48.168;12.818;2022-12-24T01:34:29;10.30;57.20
1455;DHT22;721;48.168;12.818;2022-12-24T01:36:55;10.20;57.40
1455;DHT22;721;48.168;12.818;2022-12-24T01:39:22;10.30;58.80
1455;DHT22;721;48.168;12.818;2022-12-24T01:41:51;10.20;60.20
1455;DHT22;721;48.168;12.818;2022-12-24T01:44:39;10.20;60.40
1455;DHT22;721;48.168;12.818;2022-12-24T01:47:10;10.20;60.50
1455;DHT22;721;48.168;12.818;2022-12-24T01:49:40;10.30;61.10
1455;DHT22;721;48.168;12.818;2022-12-24T01:52:10;10.30;59.80
1455;DHT22;721;48.168;12.818;2022-12-24T01:54:40;10.30;57.30
1455;DHT22;721;48.168;12.818;2022-12-24T01:57:14;10.40;55.80
1455;DHT22;721;48.168;12.818;2022-12-24T01:59:43;10.40;53.70
1455;DHT22;721;48.168;12.818;2022-12-24T02:02:12;10.40;54.90
1455;DHT22;721;48.168;12.818;2022-12-24T02:04:43;10.40;54.90
1455;DHT22;721;48.168;12.818;2022-12-24T02:07:12;10.40;57.20
1455;DHT22;721;48.168;12.818;2022-12-24T02:09:39;10.40;58.90
1455;DHT22;721;48.168;12.818;2022-12-24T02:12:06;10.40;60.80
1455;DHT22;721;48.168;12.818;2022-12-24T02:14:35;10.30;63.60
1455;DHT22;721;48.168;12.818;2022-12-24T02:17:11;10.30;63.50
1455;DHT22;721;48.168;12.818;2022-12-24T02:23:08;10.40;63.90
1455;DHT22;721;48.168;12.818;2022-12-24T02:25:57;10.30;65.60
1455;DHT22;721;48.168;12.818;2022-12-24T02:28:41;10.30;66.60
1455;DHT22;721;48.168;12.818;2022-12-24T02:31:14;10.30;67.10
1455;DHT22;721;48.168;12.818;2022-12-24T02:33:47;10.30;66.60
1455;DHT22;721;48.168;12.818;2022-12-24T02:36:22;10.30;66.30
1455;DHT22;721;48.168;12.818;2022-12-24T02:38:54;10.30;67.30
1455;DHT22;721;48.168;12.818;2022-12-24T02:41:26;10.20;68.30
1455;DHT22;721;48.168;12.818;2022-12-24T02:44:13;10.30;68.90
1455;DHT22;721;48.168;12.818;2022-12-24T02:46:42;10.30;68.20
1455;DHT22;721;48.168;12.818;2022-12-24T02:49:09;10.30;67.90
1455;DHT22;721;48.168;12.818;2022-12-24T02:51:36;10.30;67.90
1455;DHT22;721;48.168;12.818;2022-12-24T02:54:03;10.30;67.90
1455;DHT22;721;48.168;12.818;2022-12-24T02:56:44;10.40;67.70
1455;DHT22;721;48.168;12.818;2022-12-24T03:02:25;10.30;66.10
1455;DHT22;721;48.168;12.818;2022-12-24T03:05:07;10.40;64.40
1455;DHT22;721;48.168;12.818;2022-12-24T03:07:37;10.20;64.50
1455;DHT22;721;48.168;12.818;2022-12-24T03:10:14;10.20;65.30
1455;DHT22;721;48.168;12.818;2022-12-24T03:12:46;10.20;64.40
1455;DHT22;721;48.168;12.818;2022-12-24T03:15:17;10.20;63.90
1455;DHT22;721;48.168;12.818;2022-12-24T03:17:48;10.20;62.70
1455;DHT22;721;48.168;12.818;2022-12-24T03:20:19;10.30;62.10
1455;DHT22;721;48.168;12.818;2022-12-24T03:22:48;10.20;62.30
1455;DHT22;721;48.168;12.818;2022-12-24T03:25:15;10.20;62.10
1455;DHT22;721;48.168;12.818;2022-12-24T03:27:43;10.20;61.30
1455;DHT22;721;48.168;12.818;2022-12-24T03:30:11;10.30;59.90
1455;DHT22;721;48.168;12.818;2022-12-24T03:32:38;10.30;59.30
1455;DHT22;721;48.168;12.818;2022-12-24T03:35:07;10.30;60.00
1455;DHT22;721;48.168;12.818;2022-12-24T03:37:34;10.30;55.90
1455;DHT22;721;48.168;12.818;2022-12-24T03:40:01;10.40;54.60
1455;DHT22;721;48.168;12.818;2022-12-24T03:42:28;10.40;53.30
1455;DHT22;721;48.168;12.818;2022-12-24T03:44:55;10.30;52.70
1455;DHT22;721;48.168;12.818;2022-12-24T03:47:21;10.40;51.20
1455;DHT22;721;48.168;12.818;2022-12-24T03:49:48;10.40;51.00
1455;DHT22;721;48.168;12.818;2022-12-24T03:52:16;10.30;51.70
1455;DHT22;721;48.168;12.818;2022-12-24T03:54:43;10.30;51.70
1455;DHT22;721;48.168;12.818;2022-12-24T03:57:10;10.30;51.30
1455;DHT22;721;48.168;12.818;2022-12-24T03:59:36;10.30;50.10
1455;DHT22;721;48.168;12.818;2022-12-24T04:02:03;10.30;50.20
1455;DHT22;721;48.168;12.818;2022-12-24T04:04:30;10.30;49.50
1455;DHT22;721;48.168;12.818;2022-12-24T04:06:58;10.40;47.90
1455;DHT22;721;48.168;12.818;2022-12-24T04:09:26;10.40;45.90
1455;DHT22;721;48.168;12.818;2022-12-24T04:11:52;10.40;46.10
1455;DHT22;721;48.168;12.818;2022-12-24T04:14:19;10.40;44.70
1455;DHT22;721;48.168;12.818;2022-12-24T04:16:46;10.50;42.30
1455;DHT22;721;48.168;12.818;2022-12-24T04:19:13;10.50;43.30
1455;DHT22;721;48.168;12.818;2022-12-24T04:21:40;10.40;43.00
1455;DHT22;721;48.168;12.818;2022-12-24T04:24:07;10.50;43.70
1455;DHT22;721;48.168;12.818;2022-12-24T04:26:35;10.40;43.30
1455;DHT22;721;48.168;12.818;2022-12-24T04:29:02;10.40;43.60
1455;DHT22;721;48.168;12.818;2022-12-24T04:31:28;10.50;42.10
1455;DHT22;721;48.168;12.818;2022-12-24T04:33:55;10.40;43.10
1455;DHT22;721;48.168;12.818;2022-12-24T04:36:22;10.40;42.00
1455;DHT22;721;48.168;12.818;2022-12-24T04:38:49;10.30;42.00
1455;DHT22;721;48.168;12.818;2022-12-24T04:41:17;10.30;42.10
1455;DHT22;721;48.168;12.818;2022-12-24T04:43:46;10.20;43.90
1455;DHT22;721;48.168;12.818;2022-12-24T04:46:15;10.20;43.20
1455;DHT22;721;48.168;12.818;2022-12-24T04:48:43;10.10;44.00
1455;DHT22;721;48.168;12.818;2022-12-24T04:51:10;10.10;45.20
1455;DHT22;721;48.168;12.818;2022-12-24T04:53:38;10.10;44.00
1455;DHT22;721;48.168;12.818;2022-12-24T04:56:07;10.00;45.00
1455;DHT22;721;48.168;12.818;2022-12-24T04:58:34;10.00;43.40
1455;DHT22;721;48.168;12.818;2022-12-24T05:01:04;10.00;45.10
1455;DHT22;721;48.168;12.818;2022-12-24T05:03:31;10.00;44.10
1455;DHT22;721;48.168;12.818;2022-12-24T05:06:00;10.00;44.80
1455;DHT22;721;48.168;12.818;2022-12-24T05:08:27;10.00;44.40
1455;DHT22;721;48.168;12.818;2022-12-24T05:10:55;10.10;44.10
1455;DHT22;721;48.168;12.818;2022-12-24T05:13:22;10.10;43.40
1455;DHT22;721;48.168;12.818;2022-12-24T05:15:49;10.10;43.00
1455;DHT22;721;48.168;12.818;2022-12-24T05:18:18;10.20;42.10
1455;DHT22;721;48.168;12.818;2022-12-24T05:20:45;10.20;42.20
1455;DHT22;721;48.168;12.818;2022-12-24T05:23:14;10.20;41.10
1455;DHT22;721;48.168;12.818;2022-12-24T05:25:59;10.20;42.20
1455;DHT22;721;48.168;12.818;2022-12-24T05:28:43;10.20;41.90
1455;DHT22;721;48.168;12.818;2022-12-24T05:31:10;10.30;40.30
1455;DHT22;721;48.168;12.818;2022-12-24T05:33:38;10.30;38.20
1455;DHT22;721;48.168;12.818;2022-12-24T05:36:06;10.30;38.50
1455;DHT22;721;48.168;12.818;2022-12-24T05:38:33;10.30;38.20
1455;DHT22;721;48.168;12.818;2022-12-24T05:41:00;10.30;37.60
1455;DHT22;721;48.168;12.818;2022-12-24T05:43:27;10.30;38.30
1455;DHT22;721;48.168;12.818;2022-12-24T05:45:57;10.30;37.90
1455;DHT22;721;48.168;12.818;2022-12-24T05:48:24;10.30;38.80
1455;DHT22;721;48.168;12.818;2022-12-24T05:50:52;10.40;36.60
1455;DHT22;721;48.168;12.818;2022-12-24T05:53:20;10.50;34.60
1455;DHT22;721;48.168;12.818;2022-12-24T05:55:47;10.50;34.50
1455;DHT22;721;48.168;12.818;2022-12-24T05:58:14;10.60;31.90
1455;DHT22;721;48.168;12.818;2022-12-24T06:00:41;10.60;32.60
1455;DHT22;721;48.168;12.818;2022-12-24T06:03:08;10.50;37.60
1455;DHT22;721;48.168;12.818;2022-12-24T06:05:35;10.50;40.00
1455;DHT22;721;48.168;12.818;2022-12-24T06:08:03;10.30;43.70
1455;DHT22;721;48.168;12.818;2022-12-24T06:10:30;10.00;47.90
1455;DHT22;721;48.168;12.818;2022-12-24T06:12:57;9.70;52.00
1455;DHT22;721;48.168;12.818;2022-12-24T06:15:23;9.60;52.30
1455;DHT22;721;48.168;12.818;2022-12-24T06:17:50;9.30;55.30
1455;DHT22;721;48.168;12.818;2022-12-24T06:20:17;9.30;57.00
1455;DHT22;721;48.168;12.818;2022-12-24T06:22:44;9.20;59.40
1455;DHT22;721;48.168;12.818;2022-12-24T06:25:12;9.10;61.20
1455;DHT22;721;48.168;12.818;2022-12-24T06:27:39;9.10;62.70
1455;DHT22;721;48.168;12.818;2022-12-24T06:30:07;9.10;64.10
1455;DHT22;721;48.168;12.818;2022-12-24T06:32:34;9.00;65.40
1455;DHT22;721;48.168;12.818;2022-12-24T06:35:01;9.00;66.10
1455;DHT22;721;48.168;12.818;2022-12-24T06:37:28;9.00;65.20
1455;DHT22;721;48.168;12.818;2022-12-24T06:39:55;9.00;65.10
1455;DHT22;721;48.168;12.818;2022-12-24T06:42:23;9.10;64.10
1455;DHT22;721;48.168;12.818;2022-12-24T06:44:50;9.20;63.90
1455;DHT22;721;48.168;12.818;2022-12-24T06:47:16;9.20;64.40
1455;DHT22;721;48.168;12.818;2022-12-24T06:49:43;9.20;65.10
1455;DHT22;721;48.168;12.818;2022-12-24T06:52:10;9.20;65.90
1455;DHT22;721;48.168;12.818;2022-12-24T06:54:37;9.20;65.40
1455;DHT22;721;48.168;12.818;2022-12-24T06:57:04;9.30;63.80
1455;DHT22;721;48.168;12.818;2022-12-24T06:59:32;9.30;65.00
1455;DHT22;721;48.168;12.818;2022-12-24T07:01:59;9.10;56.60
1455;DHT22;721;48.168;12.818;2022-12-24T07:04:26;8.70;58.90
1455;DHT22;721;48.168;12.818;2022-12-24T07:06:53;8.60;56.60
1455;DHT22;721;48.168;12.818;2022-12-24T07:09:20;8.50;60.50
1455;DHT22;721;48.168;12.818;2022-12-24T07:11:46;8.40;57.80
1455;DHT22;721;48.168;12.818;2022-12-24T07:14:13;8.50;60.90
1455;DHT22;721;48.168;12.818;2022-12-24T07:16:42;8.40;65.20
1455;DHT22;721;48.168;12.818;2022-12-24T07:19:08;8.40;69.50
1455;DHT22;721;48.168;12.818;2022-12-24T07:21:35;8.40;70.50
1455;DHT22;721;48.168;12.818;2022-12-24T07:24:03;8.40;71.30
1455;DHT22;721;48.168;12.818;2022-12-24T07:26:30;8.40;72.10
1455;DHT22;721;48.168;12.818;2022-12-24T07:28:57;8.40;72.10
1455;DHT22;721;48.168;12.818;2022-12-24T07:31:24;8.40;72.80
1455;DHT22;721;48.168;12.818;2022-12-24T07:33:52;8.50;73.40
1455;DHT22;721;48.168;12.818;2022-12-24T07:36:21;8.40;73.70
1455;DHT22;721;48.168;12.818;2022-12-24T07:38:49;8.40;74.40
1455;DHT22;721;48.168;12.818;2022-12-24T07:41:17;8.60;73.20
1455;DHT22;721;48.168;12.818;2022-12-24T07:43:44;8.60;72.20
1455;DHT22;721;48.168;12.818;2022-12-24T07:46:11;8.60;73.00
1455;DHT22;721;48.168;12.818;2022-12-24T07:48:38;8.60;73.60
1455;DHT22;721;48.168;12.818;2022-12-24T07:51:06;8.60;73.40
1455;DHT22;721;48.168;12.818;2022-12-24T07:53:33;8.70;73.60
1455;DHT22;721;48.168;12.818;2022-12-24T07:56:00;8.60;73.30
1455;DHT22;721;48.168;12.818;2022-12-24T07:58:27;8.60;74.60
1455;DHT22;721;48.168;12.818;2022-12-24T08:00:55;8.80;73.00
1455;DHT22;721;48.168;12.818;2022-12-24T08:03:22;8.90;71.80
1455;DHT22;721;48.168;12.818;2022-12-24T08:05:49;9.20;69.10
1455;DHT22;721;48.168;12.818;2022-12-24T08:08:19;9.30;66.10
1455;DHT22;721;48.168;12.818;2022-12-24T08:10:46;9.50;63.90
1455;DHT22;721;48.168;12.818;2022-12-24T08:13:13;9.60;60.50
1455;DHT22;721;48.168;12.818;2022-12-24T08:15:41;9.70;58.20
1455;DHT22;721;48.168;12.818;2022-12-24T08:18:08;9.80;56.20
1455;DHT22;721;48.168;12.818;2022-12-24T08:20:37;9.80;55.60
1455;DHT22;721;48.168;12.818;2022-12-24T08:23:04;9.40;57.40
1455;DHT22;721;48.168;12.818;2022-12-24T08:25:33;9.40;57.70
1455;DHT22;721;48.168;12.818;2022-12-24T08:28:00;9.40;60.80
1455;DHT22;721;48.168;12.818;2022-12-24T08:30:26;9.40;59.20
1455;DHT22;721;48.168;12.818;2022-12-24T08:32:53;9.50;57.30
1455;DHT22;721;48.168;12.818;2022-12-24T08:35:21;9.50;55.10
1455;DHT22;721;48.168;12.818;2022-12-24T08:37:49;9.50;54.90
1455;DHT22;721;48.168;12.818;2022-12-24T08:40:16;9.40;53.40
1455;DHT22;721;48.168;12.818;2022-12-24T08:42:44;9.30;54.90
1455;DHT22;721;48.168;12.818;2022-12-24T08:45:11;9.30;57.00
1455;DHT22;721;48.168;12.818;2022-12-24T08:47:38;9.30;57.40
1455;DHT22;721;48.168;12.818;2022-12-24T08:50:07;9.30;55.30
1455;DHT22;721;48.168;12.818;2022-12-24T08:52:34;9.10;55.40
1455;DHT22;721;48.168;12.818;2022-12-24T08:55:01;9.10;56.00
1455;DHT22;721;48.168;12.818;2022-12-24T08:57:28;8.90;54.60
1455;DHT22;721;48.168;12.818;2022-12-24T08:59:56;8.90;55.10
1455;DHT22;721;48.168;12.818;2022-12-24T09:02:23;8.80;54.40
1455;DHT22;721;48.168;12.818;2022-12-24T09:04:50;8.90;51.40
1455;DHT22;721;48.168;12.818;2022-12-24T09:07:16;8.90;50.00
1455;DHT22;721;48.168;12.818;2022-12-24T09:09:43;9.00;48.40
1455;DHT22;721;48.168;12.818;2022-12-24T09:12:10;9.00;45.50
1455;DHT22;721;48.168;12.818;2022-12-24T09:14:37;9.00;45.20
1455;DHT22;721;48.168;12.818;2022-12-24T09:17:05;9.00;44.60
1455;DHT22;721;48.168;12.818;2022-12-24T09:19:33;9.20;40.60
1455;DHT22;721;48.168;12.818;2022-12-24T09:22:05;9.10;36.00
1455;DHT22;721;48.168;12.818;2022-12-24T09:24:35;9.20;33.60
1455;DHT22;721;48.168;12.818;2022-12-24T09:27:09;9.30;29.60
1455;DHT22;721;48.168;12.818;2022-12-24T09:29:41;9.30;29.50
1455;DHT22;721;48.168;12.818;2022-12-24T09:32:18;9.40;29.20
1455;DHT22;721;48.168;12.818;2022-12-24T09:34:49;9.40;25.40
1455;DHT22;721;48.168;12.818;2022-12-24T09:37:16;9.50;27.00
1455;DHT22;721;48.168;12.818;2022-12-24T09:39:43;9.50;24.60
1455;DHT22;721;48.168;12.818;2022-12-24T09:42:18;9.50;25.50
1455;DHT22;721;48.168;12.818;2022-12-24T09:44:54;9.50;23.10
1455;DHT22;721;48.168;12.818;2022-12-24T09:47:28;9.60;23.20
1455;DHT22;721;48.168;12.818;2022-12-24T09:50:00;9.70;20.10
1455;DHT22;721;48.168;12.818;2022-12-24T09:52:32;9.70;21.50
1455;DHT22;721;48.168;12.818;2022-12-24T09:55:07;9.80;19.30
1455;DHT22;721;48.168;12.818;2022-12-24T09:57:41;9.80;19.80
1455;DHT22;721;48.168;12.818;2022-12-24T10:00:16;9.90;16.70
1455;DHT22;721;48.168;12.818;2022-12-24T10:02:46;10.00;15.30
1455;DHT22;721;48.168;12.818;2022-12-24T10:05:14;10.00;17.60
1455;DHT22;721;48.168;12.818;2022-12-24T10:07:49;10.00;14.80
1455;DHT22;721;48.168;12.818;2022-12-24T10:10:27;10.00;13.30
1455;DHT22;721;48.168;12.818;2022-12-24T10:13:03;10.10;14.10
1455;DHT22;721;48.168;12.818;2022-12-24T10:15:39;10.20;15.30
1455;DHT22;721;48.168;12.818;2022-12-24T10:18:23;10.10;13.60
1455;DHT22;721;48.168;12.818;2022-12-24T10:21:01;10.20;13.10
1455;DHT22;721;48.168;12.818;2022-12-24T10:23:40;10.20;12.60
1455;DHT22;721;48.168;12.818;2022-12-24T10:26:14;10.20;12.50
1455;DHT22;721;48.168;12.818;2022-12-24T10:28:45;10.20;13.20
1455;DHT22;721;48.168;12.818;2022-12-24T10:31:13;10.40;11.70
1455;DHT22;721;48.168;12.818;2022-12-24T10:33:43;10.30;10.70
1455;DHT22;721;48.168;12.818;2022-12-24T10:36:15;10.40;12.90
1455;DHT22;721;48.168;12.818;2022-12-24T10:38:43;10.40;11.40
1455;DHT22;721;48.168;12.818;2022-12-24T10:41:11;10.40;11.50
1455;DHT22;721;48.168;12.818;2022-12-24T10:43:40;10.30;12.20
1455;DHT22;721;48.168;12.818;2022-12-24T10:46:18;10.40;9.40
1455;DHT22;721;48.168;12.818;2022-12-24T10:48:52;10.40;10.10
1455;DHT22;721;48.168;12.818;2022-12-24T10:51:24;10.40;9.50
1455;DHT22;721;48.168;12.818;2022-12-24T10:53:59;10.40;8.60
1455;DHT22;721;48.168;12.818;2022-12-24T10:56:27;10.30;9.20
1455;DHT22;721;48.168;12.818;2022-12-24T10:58:54;10.30;10.70
1455;DHT22;721;48.168;12.818;2022-12-24T11:01:42;10.30;9.30
1455;DHT22;721;48.168;12.818;2022-12-24T11:04:15;10.40;10.80
1455;DHT22;721;48.168;12.818;2022-12-24T11:06:52;10.30;9.30
1455;DHT22;721;48.168;12.818;2022-12-24T11:09:22;10.30;9.20
1455;DHT22;721;48.168;12.818;2022-12-24T11:11:50;10.30;10.40
1455;DHT22;721;48.168;12.818;2022-12-24T11:14:20;10.20;10.70
1455;DHT22;721;48.168;12.818;2022-12-24T11:16:51;10.40;9.40
1455;DHT22;721;48.168;12.818;2022-12-24T11:19:25;10.50;8.50
1455;DHT22;721;48.168;12.818;2022-12-24T11:22:01;10.60;8.10
1455;DHT22;721;48.168;12.818;2022-12-24T11:24:33;10.80;6.50
1455;DHT22;721;48.168;12.818;2022-12-24T11:27:30;10.80;5.90
1455;DHT22;721;48.168;12.818;2022-12-24T11:30:20;10.70;4.50
1455;DHT22;721;48.168;12.818;2022-12-24T11:32:49;10.70;4.70
1455;DHT22;721;48.168;12.818;2022-12-24T11:35:20;10.80;5.20
1455;DHT22;721;48.168;12.818;2022-12-24T11:37:47;10.90;5.70
1455;DHT22;721;48.168;12.818;2022-12-24T11:40:20;11.20;5.40
1455;DHT22;721;48.168;12.818;2022-12-24T11:42:50;11.40;4.00
1455;DHT22;721;48.168;12.818;2022-12-24T11:45:22;11.40;3.10
1455;DHT22;721;48.168;12.818;2022-12-24T11:47:50;11.50;3.20
1455;DHT22;721;48.168;12.818;2022-12-24T11:50:25;11.60;1.40
1455;DHT22;721;48.168;12.818;2022-12-24T11:52:58;11.80;3.10
1455;DHT22;721;48.168;12.818;2022-12-24T11:55:35;11.80;2.00
1455;DHT22;721;48.168;12.818;2022-12-24T11:58:13;11.80;1.00
1455;DHT22;721;48.168;12.818;2022-12-24T12:00:43;11.90;1.00
1455;DHT22;721;48.168;12.818;2022-12-24T12:03:23;11.70;1.00
1455;DHT22;721;48.168;12.818;2022-12-24T12:05:54;11.70;2.10
1455;DHT22;721;48.168;12.818;2022-12-24T12:08:22;11.80;1.70
1455;DHT22;721;48.168;12.818;2022-12-24T12:10:52;11.60;1.00
1455;DHT22;721;48.168;12.818;2022-12-24T12:13:23;11.80;1.00
1455;DHT22;721;48.168;12.818;2022-12-24T12:16:06;11.70;1.00
1455;DHT22;721;48.168;12.818;2022-12-24T12:18:39;11.60;1.00
1455;DHT22;721;48.168;12.818;2022-12-24T12:21:12;11.80;1.00
1455;DHT22;721;48.168;12.818;2022-12-24T12:23:43;11.70;1.00
1455;DHT22;721;48.168;12.818;2022-12-24T12:26:16;11.90;1.00
1455;DHT22;721;48.168;12.818;2022-12-24T12:28:48;11.90;1.00
1455;DHT22;721;48.168;12.818;2022-12-24T12:31:21;11.90;1.00
1455;DHT22;721;48.168;12.818;2022-12-24T12:33:54;11.90;1.00
1455;DHT22;721;48.168;12.818;2022-12-24T12:36:27;11.80;1.00
1455;DHT22;721;48.168;12.818;2022-12-24T12:38:55;11.90;1.00
1455;DHT22;721;48.168;12.818;2022-12-24T12:41:38;12.10;1.00
1455;DHT22;721;48.168;12.818;2022-12-24T12:44:27;12.00;1.00
1455;DHT22;721;48.168;12.818;2022-12-24T12:47:23;12.10;1.00
1455;DHT22;721;48.168;12.818;2022-12-24T12:50:01;12.10;1.00
1455;DHT22;721;48.168;12.818;2022-12-24T12:53:06;12.40;1.00
1455;DHT22;721;48.168;12.818;2022-12-24T12:55:45;12.30;1.00
1455;DHT22;721;48.168;12.818;2022-12-24T12:58:18;12.30;1.00
1455;DHT22;721;48.168;12.818;2022-12-24T13:00:46;12.40;1.00
1455;DHT22;721;48.168;12.818;2022-12-24T13:03:50;12.50;1.00
1455;DHT22;721;48.168;12.818;2022-12-24T13:09:53;12.80;1.00
1455;DHT22;721;48.168;12.818;2022-12-24T13:12:39;12.80;1.00
1455;DHT22;721;48.168;12.818;2022-12-24T13:18:41;13.10;1.00
1455;DHT22;721;48.168;12.818;2022-12-24T13:21:15;13.00;1.00
1455;DHT22;721;48.168;12.818;2022-12-24T13:23:42;13.20;1.00
1455;DHT22;721;48.168;12.818;2022-12-24T13:26:12;13.40;1.00
1455;DHT22;721;48.168;12.818;2022-12-24T13:28:40;13.40;1.00
1455;DHT22;721;48.168;12.818;2022-12-24T13:31:27;13.20;1.00
1455;DHT22;721;48.168;12.818;2022-12-24T13:34:01;13.20;1.00
1455;DHT22;721;48.168;12.818;2022-12-24T13:37:01;12.90;1.00
1455;DHT22;721;48.168;12.818;2022-12-24T13:42:49;12.80;1.00
1455;DHT22;721;48.168;12.818;2022-12-24T13:45:42;12.80;1.00
1455;DHT22;721;48.168;12.818;2022-12-24T13:48:30;12.80;1.00
1455;DHT22;721;48.168;12.818;2022-12-24T13:50:59;12.70;1.00
1455;DHT22;721;48.168;12.818;2022-12-24T13:53:29;12.60;1.00
1455;DHT22;721;48.168;12.818;2022-12-24T13:56:04;12.50;1.00
1455;DHT22;721;48.168;12.818;2022-12-24T13:58:40;12.40;1.00
1455;DHT22;721;48.168;12.818;2022-12-24T14:01:10;12.30;1.00
1455;DHT22;721;48.168;12.818;2022-12-24T14:03:42;12.50;1.00
1455;DHT22;721;48.168;12.818;2022-12-24T14:06:12;12.60;1.00
1455;DHT22;721;48.168;12.818;2022-12-24T14:08:48;12.50;1.00
1455;DHT22;721;48.168;12.818;2022-12-24T14:11:17;12.50;1.00
1455;DHT22;721;48.168;12.818;2022-12-24T14:14:10;12.40;1.00
1455;DHT22;721;48.168;12.818;2022-12-24T14:16:50;12.40;1.00
1455;DHT22;721;48.168;12.818;2022-12-24T14:19:20;12.30;1.00
1455;DHT22;721;48.168;12.818;2022-12-24T14:21:55;12.50;1.00
1455;DHT22;721;48.168;12.818;2022-12-24T14:24:26;12.40;1.00
1455;DHT22;721;48.168;12.818;2022-12-24T14:26:56;12.20;1.00
1455;DHT22;721;48.168;12.818;2022-12-24T14:29:28;12.20;1.00
1455;DHT22;721;48.168;12.818;2022-12-24T14:31:58;12.00;1.00
1455;DHT22;721;48.168;12.818;2022-12-24T14:34:29;12.00;1.00
1455;DHT22;721;48.168;12.818;2022-12-24T14:36:58;12.00;1.00
1455;DHT22;721;48.168;12.818;2022-12-24T14:39:31;12.00;1.00
1455;DHT22;721;48.168;12.818;2022-12-24T14:42:07;11.90;1.00
1455;DHT22;721;48.168;12.818;2022-12-24T14:44:47;11.80;1.00
1455;DHT22;721;48.168;12.818;2022-12-24T14:47:27;11.70;1.00
1455;DHT22;721;48.168;12.818;2022-12-24T14:53:05;11.60;1.00
1455;DHT22;721;48.168;12.818;2022-12-24T14:55:37;11.60;1.00
1455;DHT22;721;48.168;12.818;2022-12-24T14:58:29;11.50;1.20
1455;DHT22;721;48.168;12.818;2022-12-24T15:01:00;11.50;1.30
1455;DHT22;721;48.168;12.818;2022-12-24T15:03:31;11.50;1.10
1455;DHT22;721;48.168;12.818;2022-12-24T15:06:04;11.50;1.00
1455;DHT22;721;48.168;12.818;2022-12-24T15:08:35;11.60;1.40
1455;DHT22;721;48.168;12.818;2022-12-24T15:11:05;11.50;1.00
1455;DHT22;721;48.168;12.818;2022-12-24T15:13:37;11.40;1.50
1455;DHT22;721;48.168;12.818;2022-12-24T15:16:13;11.20;2.20
1455;DHT22;721;48.168;12.818;2022-12-24T15:18:42;11.50;2.10
1455;DHT22;721;48.168;12.818;2022-12-24T15:21:15;11.60;1.00
1455;DHT22;721;48.168;12.818;2022-12-24T15:23:46;11.80;1.00
1455;DHT22;721;48.168;12.818;2022-12-24T15:26:20;11.80;1.00
1455;DHT22;721;48.168;12.818;2022-12-24T15:28:47;11.90;1.00
1455;DHT22;721;48.168;12.818;2022-12-24T15:31:17;12.10;1.00
1455;DHT22;721;48.168;12.818;2022-12-24T15:33:45;12.20;1.00
1455;DHT22;721;48.168;12.818;2022-12-24T15:36:14;12.10;1.00
1455;DHT22;721;48.168;12.818;2022-12-24T15:38:42;12.20;1.00
1455;DHT22;721;48.168;12.818;2022-12-24T15:41:17;12.10;1.00
1455;DHT22;721;48.168;12.818;2022-12-24T15:43:46;11.90;1.00
1455;DHT22;721;48.168;12.818;2022-12-24T15:46:19;11.70;1.00
1455;DHT22;721;48.168;12.818;2022-12-24T15:48:47;11.80;1.00
1455;DHT22;721;48.168;12.818;2022-12-24T15:51:23;11.60;1.00
1455;DHT22;721;48.168;12.818;2022-12-24T15:53:56;11.40;1.00
1455;DHT22;721;48.168;12.818;2022-12-24T15:56:35;11.50;1.00
1455;DHT22;721;48.168;12.818;2022-12-24T15:59:26;11.80;1.00
1455;DHT22;721;48.168;12.818;2022-12-24T16:05:30;11.70;1.00
1455;DHT22;721;48.168;12.818;2022-12-24T16:08:02;11.70;1.00
1455;DHT22;721;48.168;12.818;2022-12-24T16:10:37;11.70;1.00
1455;DHT22;721;48.168;12.818;2022-12-24T16:13:12;11.70;1.00
1455;DHT22;721;48.168;12.818;2022-12-24T16:15:48;11.50;1.00
1455;DHT22;721;48.168;12.818;2022-12-24T16:18:23;11.40;1.30
1455;DHT22;721;48.168;12.818;2022-12-24T16:20:51;11.20;4.00
1455;DHT22;721;48.168;12.818;2022-12-24T16:23:20;11.00;4.80
1455;DHT22;721;48.168;12.818;2022-12-24T16:25:47;11.10;4.70
1455;DHT22;721;48.168;12.818;2022-12-24T16:28:14;11.20;3.80
1455;DHT22;721;48.168;12.818;2022-12-24T16:30:43;11.10;3.40
1455;DHT22;721;48.168;12.818;2022-12-24T16:33:15;10.80;3.90
1455;DHT22;721;48.168;12.818;2022-12-24T16:35:47;10.60;5.00
1455;DHT22;721;48.168;12.818;2022-12-24T16:38:14;10.50;5.80
1455;DHT22;721;48.168;12.818;2022-12-24T16:40:42;10.40;4.70
1455;DHT22;721;48.168;12.818;2022-12-24T16:43:09;10.10;6.60
1455;DHT22;721;48.168;12.818;2022-12-24T16:45:59;10.20;6.50
1455;DHT22;721;48.168;12.818;2022-12-24T16:48:26;10.30;6.60
1455;DHT22;721;48.168;12.818;2022-12-24T16:50:54;10.20;6.50
1455;DHT22;721;48.168;12.818;2022-12-24T16:53:22;9.90;9.00
1455;DHT22;721;48.168;12.818;2022-12-24T16:55:49;9.80;9.00
1455;DHT22;721;48.168;12.818;2022-12-24T16:58:17;9.80;9.20